Latest Weather Observations for Batchelor

IDD60901

Issued at 1:35 pm CST Monday 28 July 2014 (issued every 10 minutes, with the page automatically refreshed every 10 minutes)

About weather observations | Map of Darwin area stations | Latest observations for Darwin area | Other Formats
Station Details ID: 014272 Name: BATCHELOR AIRPORT Lat: -13.05 Lon: 131.03 Height: 104.0 m
Data from the previous 72 hours. | See also: Recent months at Batchelor
Date/Time
CST
Tmp

°C
App
Tmp
°C
Dew
Point
°C
Rel
Hum
%
Delta-T

°C
Wind Press
QNH
hPa
Press
MSL
hPa
Rain
since
9 am
mm
Dir
 
Spd
km/h
Gust
km/h
Spd
kts
Gust
kts
28/01:30pm 32.8 27.2 3.7 16 15.1 ESE 22 32 12 17 1014.2 1013.7 0.0
28/01:00pm 32.1 28.7 9.0 24 13.0 ESE 17 26 9 14 1014.5 - 0.0
28/12:30pm 32.0 27.2 8.9 24 13.0 ESE 24 35 13 19 1015.0 1014.5 0.0
28/12:00pm 30.9 26.9 10.3 28 11.8 ESE 22 33 12 18 1015.5 1015.0 0.0
28/11:30am 30.1 25.1 11.1 31 11.0 ESE 28 37 15 20 1016.3 1015.8 0.0
28/11:00am 29.3 23.9 10.9 32 10.6 E 30 39 16 21 1016.6 - 0.0
28/10:30am 28.6 24.4 11.2 34 10.0 E 24 41 13 22 1016.9 1016.4 0.0
28/10:00am 27.5 24.4 11.5 37 9.2 ESE 19 28 10 15 1017.1 - 0.0
28/09:30am 26.8 24.4 12.5 41 8.3 E 17 24 9 13 1017.3 1016.8 0.0
28/09:00am 25.8 25.8 14.3 49 6.9 E 7 9 4 5 1017.2 1016.7 0.0
28/08:30am 24.0 25.1 14.7 56 5.5 WNW 2 6 1 3 1017.0 1016.5 0.0
28/08:00am 21.9 23.4 15.7 68 3.7 WNW 2 4 1 2 1016.8 - 0.0
28/07:30am 19.6 20.6 16.3 81 2.0 WNW 6 6 3 3 1016.6 1016.1 0.0
28/07:00am 18.9 19.8 16.1 84 1.7 WNW 6 7 3 4 1016.4 - 0.0
28/06:30am 18.6 21.0 17.1 91 0.9 WNW 0 6 0 3 1016.2 1015.7 0.0
28/06:00am 18.3 20.7 17.0 92 0.8 WNW 0 0 0 0 1015.8 1015.3 0.0
28/05:30am 18.1 20.3 16.4 90 1.0 WNW 0 0 0 0 1015.6 1015.1 0.0
28/05:00am 18.7 21.2 17.2 91 0.9 CALM 0 0 0 0 1015.4 - 0.0
28/04:30am 18.6 21.0 16.9 90 1.0 CALM 0 0 0 0 1015.2 1014.7 0.0
28/04:00am 18.7 21.1 17.0 90 1.0 CALM 0 0 0 0 1015.1 - 0.0
28/03:30am 19.0 21.5 17.3 90 1.0 CALM 0 0 0 0 1015.2 1014.7 0.0
28/03:00am 19.2 21.7 17.3 89 1.2 CALM 0 0 0 0 1015.3 1014.8 0.0
28/02:30am 19.4 22.0 17.4 88 1.2 CALM 0 0 0 0 1015.6 1015.1 0.0
28/02:00am 19.8 22.3 17.2 85 1.6 CALM 0 0 0 0 1015.8 - 0.0
28/01:30am 20.2 22.9 17.8 86 1.5 CALM 0 0 0 0 1016.1 1015.6 0.0
28/01:00am 20.7 23.6 18.1 85 1.6 CALM 0 0 0 0 1016.2 - 0.0
28/12:30am 20.4 22.9 17.2 82 2.0 CALM 0 0 0 0 1016.4 1015.9 0.0
28/12:00am 21.7 24.5 17.9 79 2.4 WNW 0 0 0 0 1016.3 1015.8 0.0
 
Date/Time
CST
Tmp

°C
App
Tmp
°C
Dew
Point
°C
Rel
Hum
%
Delta-T

°C
Wind Press
QNH
hPa
Press
MSL
hPa
Rain
since
9 am
mm
Dir
 
Spd
km/h
Gust
km/h
Spd
kts
Gust
kts
27/11:30pm 22.4 24.9 18.2 77 2.6 WNW 2 4 1 2 1016.3 1015.8 0.0
27/11:00pm 23.1 24.9 18.2 74 3.1 WNW 6 6 3 3 1016.5 - 0.0
27/10:30pm 23.6 25.8 18.3 72 3.3 WNW 4 6 2 3 1016.5 1016.0 0.0
27/10:00pm 24.2 26.0 18.4 70 3.7 WNW 6 7 3 4 1016.5 - 0.0
27/09:30pm 25.2 26.8 18.2 65 4.4 W 7 11 4 6 1016.3 1015.8 0.0
27/09:00pm 26.6 28.0 17.7 58 5.6 WNW 7 13 4 7 1016.0 1015.5 0.0
27/08:30pm 27.5 28.2 15.5 48 7.3 N 6 9 3 5 1015.8 1015.3 0.0
27/08:00pm 28.1 27.6 12.5 38 9.1 NE 7 9 4 5 1015.0 - 0.0
27/07:30pm 28.9 28.2 11.5 34 10.1 E 6 7 3 4 1014.3 1013.8 0.0
27/07:00pm 29.7 28.9 11.2 31 10.7 E 6 9 3 5 1013.8 - 0.0
27/06:30pm 30.9 28.7 10.8 29 11.6 E 13 20 7 11 1013.3 1012.8 0.0
27/06:00pm 30.9 29.2 11.3 30 11.4 E 11 15 6 8 1012.9 1012.4 0.0
27/05:30pm 31.5 29.7 10.8 28 12.0 E 11 17 6 9 1012.6 1012.2 0.0
27/05:00pm 32.7 30.6 11.3 27 12.6 E 13 20 7 11 1012.3 - 0.0
27/04:30pm 31.9 28.7 10.0 26 12.5 E 17 32 9 17 1012.4 1012.0 0.0
27/04:00pm 32.5 29.5 10.5 26 12.7 E 17 26 9 14 1012.5 - 0.0
27/03:30pm 32.6 29.4 11.2 27 12.5 ESE 19 28 10 15 1012.8 1012.3 0.0
27/03:00pm 33.3 31.4 11.8 27 12.7 E 13 17 7 9 1013.1 1012.6 0.0
27/02:30pm 32.0 30.1 11.7 28 11.9 E 13 17 7 9 1013.4 1012.9 0.0
27/02:00pm 31.3 28.0 11.7 30 11.5 ESE 20 32 11 17 1014.0 - 0.0
27/01:30pm 31.8 28.5 11.6 29 11.9 E 20 32 11 17 1014.7 1014.2 0.0
27/01:00pm 32.1 29.4 11.8 29 12.0 NE 17 26 9 14 1015.1 - 0.0
27/12:30pm 31.5 28.0 12.3 31 11.4 E 22 35 12 19 1015.8 1015.3 0.0
27/12:00pm 30.5 27.1 12.4 33 10.7 E 22 33 12 18 1016.3 1015.8 0.0
27/11:30am 30.5 27.4 13.3 35 10.3 ESE 22 30 12 16 1016.9 1016.4 0.0
27/11:00am 29.8 26.9 14.0 38 9.5 ESE 22 35 12 19 1017.3 - 0.0
27/10:30am 29.0 26.4 14.8 42 8.6 ESE 22 33 12 18 1017.6 1017.1 0.0
27/10:00am 28.1 25.9 14.3 42 8.3 E 19 28 10 15 1017.8 - 0.0
27/09:30am 27.0 25.2 15.4 49 7.1 ESE 19 24 10 13 1017.8 1017.3 0.0
27/09:00am 24.4 26.4 18.8 71 3.6 S 6 7 3 4 1017.8 1017.3 0.0
27/08:30am 22.5 24.7 19.1 81 2.2 S 6 7 3 4 1017.7 1017.2 0.0
27/08:00am 20.6 23.0 18.9 90 1.1 S 4 6 2 3 1017.5 - 0.0
27/07:30am 18.3 20.1 17.3 94 0.6 E 4 4 2 2 1017.2 1016.7 0.0
27/07:00am 18.1 20.4 16.8 92 0.8 CALM 0 0 0 0 1017.0 - 0.0
27/06:30am 18.7 21.3 17.5 93 0.7 CALM 0 0 0 0 1016.8 1016.3 0.0
27/06:00am 18.2 20.0 16.4 89 1.1 E 2 6 1 3 1016.6 1016.1 0.0
27/05:30am 19.6 22.4 17.9 90 1.0 CALM 0 0 0 0 1016.4 1015.9 0.0
27/05:00am 20.0 22.8 18.0 88 1.2 CALM 0 0 0 0 1016.4 - 0.0
27/04:30am 20.4 23.1 17.8 85 1.6 CALM 0 0 0 0 1016.4 1015.9 0.0
27/04:00am 21.6 24.6 18.4 82 2.0 CALM 0 0 0 0 1016.5 - 0.0
27/03:30am 22.4 25.0 18.4 78 2.5 E 2 2 1 1 1016.6 1016.1 0.0
27/03:00am 22.9 25.5 18.4 76 2.8 E 2 4 1 2 1016.7 1016.2 0.0
27/02:30am 22.8 25.1 18.6 77 2.7 NNW 4 4 2 2 1017.1 1016.6 0.0
27/02:00am 22.8 25.2 18.8 78 2.5 NNW 4 6 2 3 1017.3 - 0.0
27/01:30am 22.6 25.0 18.8 79 2.4 NNW 4 6 2 3 1017.4 1016.9 0.0
27/01:00am 21.9 24.9 18.5 81 2.1 CALM 0 0 0 0 1017.2 - 0.0
27/12:30am 21.5 24.3 17.9 80 2.2 CALM 0 0 0 0 1017.4 1016.9 0.0
27/12:00am 22.1 25.0 18.3 79 2.4 CALM 0 0 0 0 1017.5 1017.0 0.0
 
Date/Time
CST
Tmp

°C
App
Tmp
°C
Dew
Point
°C
Rel
Hum
%
Delta-T

°C
Wind Press
QNH
hPa
Press
MSL
hPa
Rain
since
9 am
mm
Dir
 
Spd
km/h
Gust
km/h
Spd
kts
Gust
kts
26/11:30pm 22.4 24.9 18.2 77 2.6 NNW 2 4 1 2 1017.6 1017.1 0.0
26/11:00pm 23.4 25.7 18.5 74 3.1 NNW 4 6 2 3 1017.6 - 0.0
26/10:30pm 23.8 25.8 18.7 73 3.2 NW 6 7 3 4 1017.6 1017.1 0.0
26/10:00pm 24.0 26.6 18.4 71 3.5 W 2 4 1 2 1017.4 - 0.0
26/09:30pm 24.3 26.6 18.5 70 3.7 W 4 7 2 4 1017.1 1016.6 0.0
26/09:00pm 24.1 25.2 17.1 65 4.3 NW 7 9 4 5 1016.9 1016.4 0.0
26/08:30pm 23.0 23.4 11.1 47 6.6 CALM 0 7 0 4 1016.4 1015.9 0.0
26/08:00pm 23.6 23.5 9.6 41 7.6 CALM 0 0 0 0 1015.9 - 0.0
26/07:30pm 24.4 23.8 8.8 37 8.4 E 2 4 1 2 1015.6 1015.1 0.0
26/07:00pm 26.3 25.0 7.8 31 9.9 E 4 6 2 3 1015.2 - 0.0
26/06:30pm 29.3 27.5 7.2 25 11.9 ESE 6 9 3 5 1014.8 1014.3 0.0
26/06:00pm 31.0 28.5 8.1 24 12.7 E 11 15 6 8 1014.4 1013.9 0.0
26/05:30pm 31.7 29.0 7.4 22 13.3 E 11 19 6 10 1014.2 1013.7 0.0
26/05:00pm 32.1 28.6 7.0 21 13.7 E 15 22 8 12 1013.9 - 0.0
26/04:30pm 32.0 28.8 7.0 21 13.7 ESE 13 24 7 13 1013.8 1013.3 0.0
26/04:00pm 32.2 28.3 7.1 21 13.7 ESE 17 24 9 13 1013.8 - 0.0
26/03:30pm 32.3 29.2 7.2 21 13.8 ESE 13 26 7 14 1013.9 1013.4 0.0
26/03:00pm 31.7 28.4 8.0 23 13.1 E 15 26 8 14 1014.0 1013.5 0.0
26/02:30pm 31.9 28.2 6.2 20 13.8 ESE 15 28 8 15 1014.3 1013.8 0.0
26/02:00pm 31.5 27.9 9.7 26 12.4 ESE 19 32 10 17 1014.8 - 0.0
26/01:30pm 31.3 28.7 10.6 28 11.9 ESE 15 24 8 13 1015.3 1014.8 0.0
26/01:00pm 30.2 27.2 10.7 30 11.2 ESE 17 28 9 15 1015.7 - 0.0
26/12:30pm 30.1 27.0 12.1 33 10.6 ESE 20 32 11 17 1016.4 1015.9 0.0
26/12:00pm 29.2 26.9 13.0 37 9.6 E 17 26 9 14 1017.0 1016.5 0.0
26/11:30am 28.6 27.7 14.8 43 8.4 E 13 26 7 14 1017.5 1017.0 0.0
26/11:00am 27.7 26.2 15.4 47 7.5 E 17 26 9 14 1018.0 - 0.0
26/10:30am 26.5 25.9 16.7 55 6.1 E 15 20 8 11 1018.3 1017.8 0.0
26/10:00am 26.2 26.4 17.6 59 5.4 ENE 13 19 7 10 1018.3 - 0.0
26/09:30am 24.7 25.3 17.7 65 4.4 ENE 11 19 6 10 1018.3 1017.8 0.0
26/09:00am 23.7 26.1 18.8 74 3.1 ENE 4 9 2 5 1018.0 1017.5 0.0
26/08:30am 22.4 24.8 19.6 84 1.8 NE 6 9 3 5 1017.7 1017.2 0.0
26/08:00am 20.4 23.2 19.6 95 0.5 E 4 6 2 3 1017.6 - 0.0
26/07:30am 17.6 19.8 16.6 94 0.6 CALM 0 0 0 0 1017.4 1016.9 0.0
26/07:00am 17.5 19.7 16.4 93 0.7 CALM 0 0 0 0 1017.2 - 0.0
26/06:30am 17.5 19.6 16.2 92 0.8 CALM 0 0 0 0 1017.1 1016.6 0.0
26/06:00am 18.0 20.3 16.7 92 0.8 CALM 0 0 0 0 1016.9 1016.4 0.0
26/05:30am 18.4 20.8 17.1 92 0.8 CALM 0 0 0 0 1016.8 1016.3 0.0
26/05:00am 18.8 20.9 17.3 91 0.9 E 2 4 1 2 1016.5 - 0.0
26/04:30am 18.9 20.3 16.5 86 1.4 E 4 4 2 2 1016.4 1015.9 0.0
26/04:00am 20.1 22.0 18.6 91 0.9 E 6 7 3 4 1016.6 - 0.0
26/03:30am 20.3 22.2 18.6 90 1.1 ENE 6 9 3 5 1016.5 1016.0 0.0
26/03:00am 19.1 21.8 17.8 92 0.8 CALM 0 4 0 2 1016.4 1015.9 0.0
26/02:30am 18.7 20.8 16.3 86 1.4 CALM 0 2 0 1 1016.5 1016.0 0.0
26/02:00am 20.3 22.0 18.4 89 1.2 ENE 7 9 4 5 1016.8 - 0.0
26/01:30am 19.5 21.2 18.0 91 0.9 S 6 13 3 7 1016.8 1016.3 0.0
26/01:00am 19.1 21.6 17.2 89 1.2 CALM 0 0 0 0 1016.8 - 0.0
26/12:30am 19.2 21.5 16.8 86 1.5 CALM 0 0 0 0 1016.8 1016.3 0.0
26/12:00am 19.7 21.2 16.7 83 1.8 SW 4 4 2 2 1016.7 1016.2 0.0
 
Date/Time
CST
Tmp

°C
App
Tmp
°C
Dew
Point
°C
Rel
Hum
%
Delta-T

°C
Wind Press
QNH
hPa
Press
MSL
hPa
Rain
since
9 am
mm
Dir
 
Spd
km/h
Gust
km/h
Spd
kts
Gust
kts
25/11:30pm 20.6 22.5 17.6 83 1.9 WSW 4 4 2 2 1016.9 1016.4 0.0
25/11:00pm 21.4 23.8 18.0 81 2.1 WSW 2 4 1 2 1017.0 - 0.0
25/10:30pm 21.8 23.8 17.8 78 2.5 WSW 4 6 2 3 1016.9 1016.4 0.0
25/10:00pm 22.2 24.1 17.6 75 2.9 W 4 6 2 3 1016.9 - 0.0
25/09:30pm 23.3 25.0 18.0 72 3.3 W 6 9 3 5 1016.8 1016.3 0.0
25/09:00pm 23.8 25.6 18.2 71 3.5 W 6 11 3 6 1016.5 1016.0 0.0
25/08:30pm 24.0 25.6 18.2 70 3.7 NW 7 11 4 6 1016.1 1015.6 0.0
25/08:00pm 25.0 26.4 17.7 64 4.6 W 7 13 4 7 1015.5 - 0.0
25/07:30pm 25.4 26.7 17.6 62 4.9 W 7 13 4 7 1015.0 1014.5 0.0
25/07:00pm 25.6 26.4 12.4 43 7.6 CALM 0 0 0 0 1014.4 - 0.0
25/06:30pm 28.1 28.1 11.2 35 9.7 SE 2 4 1 2 1014.2 1013.7 0.0
25/06:00pm 29.9 28.4 10.5 30 11.1 SE 9 15 5 8 1014.0 1013.5 0.0
25/05:30pm 30.9 29.3 10.3 28 11.8 E 9 13 5 7 1013.7 1013.2 0.0
25/05:00pm 31.4 29.9 10.7 28 12.0 ESE 9 17 5 9 1013.4 - 0.0
25/04:30pm 31.5 29.9 10.2 27 12.2 E 9 13 5 7 1013.3 1012.8 0.0
25/04:00pm 30.4 28.8 11.4 31 11.1 E 11 19 6 10 1013.3 - 0.0
25/03:30pm 30.4 29.9 11.9 32 10.8 E 6 9 3 5 1013.4 1012.9 0.0
25/03:00pm 31.6 30.5 11.9 30 11.6 E 9 22 5 12 1013.7 1013.2 0.0
25/02:30pm 30.5 30.1 12.9 34 10.5 SE 7 15 4 8 1013.9 1013.4 0.0
25/02:00pm 30.1 29.3 13.0 35 10.2 ESE 9 19 5 10 1014.4 - 0.0

Latest Capital City Observations: Canberra | Sydney | Melbourne | Brisbane | Adelaide | Perth | Hobart | Darwin

Other Formats:

Comma delimited format used in spreadsheet applications
http://www.bom.gov.au/fwo/IDD60901/IDD60901.94125.axf

JavaScript Object Notation format (JSON) in row-major order
http://www.bom.gov.au/fwo/IDD60901/IDD60901.94125.json